COOK1: Arkansas River Nr Coolidge, KS

                                SHEF ID:       COOK1     ARKANSAS R NR COOLIDGE, KS
STATION TYPE:
Regulating: Stage = 8.00, Flow = 2026

PRECIP STAGE STAGE(2) RIV-FLOW WTR-TEMP CONDUCT BAT-LOAD
in ft ft cfs F umho/cm volt
Ccp-Rev Ccp-Rev Ccp-Rev Ccp-Rev Ccp-Rev Ccp-Rev Ccp-Rev
(America/Chicago)
07/17 00:00 0.00 4.58 4.71 384 79.66 3062 12.89
07/17 01:00 0.01 4.58 4.72 384 79.30 3103 12.89
07/17 02:00 0.00 4.57 4.70 381 78.89 3125 12.89
07/17 03:00 0.00 4.55 4.70 376 78.24 3146 12.83
07/17 04:00 0.00 4.55 4.71 376 77.59 3125 12.83
07/17 05:00 0.00 4.58 4.72 384 76.86 3098 12.77
07/17 06:00 0.00 4.57 4.73 381 75.96 3080 12.77
07/17 07:00 0.00 4.57 4.72 381 75.25 3076 12.77
07/17 08:00 0.00 4.56 4.73 378 74.86 3094 12.83
07/17 09:00 0.00 4.58 4.71 384 74.84 3114 12.89
07/17 10:00 0.00 4.55 4.70 376 75.20 3128 13.12
07/17 11:00 0.00 4.57 4.72 381 75.94 3139 13.53
07/17 12:00 0.00 4.54 4.71 373 76.96 3146 13.71
07/17 13:00 0.00 4.57 4.72 381 78.15 3155 13.77
07/17 14:00 0.00 4.59 4.69 386 79.47 3168 13.77
07/17 15:00 0.00 4.58 4.66 384 80.71 3182 13.71
07/17 16:00 0.00 4.59 4.68 386 81.77 3191 13.53
07/17 17:00 0.00 4.58 4.66 384 82.31 3190 13.24
07/17 18:00 0.00 4.57 4.69 381 82.38 3190 13.18
07/17 19:00 0.01 4.59 4.69 386 82.13 3193 13.12
07/17 20:00 0.13 4.60 4.71 389 81.09 3181 13.18
07/17 21:00 0.00 4.55 4.67 376 80.49 3191 13.12
07/17 22:00 0.00 4.56 4.67 378 79.65 3197 12.95
07/17 23:00 ---- ---- ---- ---- ---- ---- ----
Data processed at Thu 18Jul2024 04:30 GMT

Parsing this webpage?

Checkout our new Data API! CWMSDataAPI (CDA)

Timeseries IDs (TSIDs)

TSIDs used from left to right in the data table
COOL.Precip-Inc.Total.1Hour.1Hour.Ccp-Rev
COOL.Stage.Inst.1Hour.0.Ccp-Rev
COOL.Stage-Alt.Inst.1Hour.0.Ccp-Rev
COOL.Flow.Inst.1Hour.0.Ccp-Rev
COOL.Temp-Water.Inst.1Hour.0.Ccp-Rev
COOL.Cond.Inst.1Hour.0.Ccp-Rev
COOL.Volt-Battery Load.Inst.1Hour.0.Ccp-Rev

                            

All information presented herein is the property of the government of the United States of America and may be revised or deleted at any time without prior notice. Dissemination of this information without the expressed written consent of the Public Affairs Office, Tulsa District U.S. Army Corps of Engineers is strictly prohibited. These data are gathered electronically and, as presented, have NOT undergone any form of quality control. These data are NOT guaranteed to be valid or correct.